Time;durP1;ratioP1;P1;durP2;ratioP2;P2;SDS_P1;SDS_P2;PMS_P1;PMS_P2;Temp;Humidity;BMP_temperature;BMP_pressure;BME280_temperature;BME280_humidity;BME280_pressure;Samples;Min_cycle;Max_cycle;Signal;HPM_P1;HPM_P2
2022/04/21 07:59:18;;;;;;;11.20;6.70;;;;;;;12.99;54.57;101193.34;5338676;27;20363;-78
2022/04/21 08:01:51;;;;;;;32.65;29.38;;;;;;;12.94;53.31;101197.03;5321950;28;20034;-78
2022/04/21 08:04:22;;;;;;;18.63;16.65;;;;;;;13.02;52.42;101198.31;5322538;28;20108;-81
2022/04/21 08:06:54;;;;;;;9.43;7.45;;;;;;;13.07;53.38;101194.66;5322910;28;20051;-80
2022/04/21 08:09:26;;;;;;;7.43;6.00;;;;;;;13.33;56.02;101186.81;5322150;28;20027;-81
2022/04/21 08:11:57;;;;;;;8.27;5.90;;;;;;;13.37;50.13;101187.84;5323334;28;20427;-82
2022/04/21 08:14:29;;;;;;;12.77;8.32;;;;;;;13.37;49.86;101191.47;5321278;28;20115;-83
2022/04/21 08:17:00;;;;;;;10.85;9.70;;;;;;;13.54;51.89;101188.16;5322629;28;20372;-79
2022/04/21 08:19:33;;;;;;;7.93;6.75;;;;;;;13.52;50.51;101195.16;5322644;28;20081;-79
2022/04/21 08:22:04;;;;;;;7.28;6.53;;;;;;;13.55;50.32;101195.41;5322047;28;20024;-83
2022/04/21 08:33:19;;;;;;;7.57;5.55;;;;;;;13.99;50.44;101201.69;5322662;28;20486;-78
2022/04/21 08:35:50;;;;;;;6.40;5.78;;;;;;;14.01;49.64;101196.63;5311621;28;20028;-76
2022/04/21 08:38:21;;;;;;;8.52;5.57;;;;;;;14.19;54.35;101201.34;5300582;28;20043;-75
2022/04/21 08:40:58;;;;;;;6.95;6.00;;;;;;;14.13;50.15;101199.75;5301082;28;20486;-77
2022/04/21 08:43:29;;;;;;;9.25;7.15;;;;;;;14.14;49.82;101196.69;5299979;28;20028;-77
2022/04/21 08:46:08;;;;;;;8.20;5.80;;;;;;;14.24;50.09;101194.81;5300700;28;20030;-72
2022/04/21 08:48:40;;;;;;;9.20;6.30;;;;;;;14.28;49.84;101195.88;5302493;28;20037;-82
2022/04/21 08:51:13;;;;;;;7.90;5.97;;;;;;;14.31;50.37;101193.28;5312079;28;20454;-80
2022/04/21 08:53:45;;;;;;;8.68;5.53;;;;;;;14.36;49.39;101197.97;5322167;28;20023;-76
2022/04/21 08:56:17;;;;;;;6.28;5.63;;;;;;;14.44;49.22;101185.25;5320888;28;20027;-69
2022/04/21 08:58:48;;;;;;;9.02;6.75;;;;;;;14.51;48.96;101183.72;5310963;28;20071;-79
2022/04/21 09:01:19;;;;;;;8.30;6.40;;;;;;;14.58;50.09;101188.94;5315251;28;20381;-77
2022/04/21 09:03:50;;;;;;;8.77;5.47;;;;;;;14.74;49.49;101186.69;5318687;28;20031;-82
2022/04/21 09:06:24;;;;;;;11.07;3.75;;;;;;;14.87;52.71;101185.03;5303353;28;20460;-77
2022/04/21 09:09:34;;;;;;;9.07;7.15;;;;;;;14.88;47.73;101181.09;5298731;28;20028;-83
2022/04/21 09:12:06;;;;;;;8.00;4.45;;;;;;;14.87;48.14;101190.63;5283878;28;20090;-81
2022/04/21 09:14:46;;;;;;;6.15;4.70;;;;;;;14.96;48.07;101172.00;5284112;28;20044;-73
2022/04/21 09:17:18;;;;;;;8.43;5.22;;;;;;;15.05;50.23;101174.88;5285020;28;20025;-78
2022/04/21 09:19:59;;;;;;;7.75;4.65;;;;;;;15.14;48.71;101168.25;5285440;28;20044;-79
2022/04/21 09:22:33;;;;;;;4.75;4.20;;;;;;;15.29;47.13;101177.41;5302289;28;20030;-75
2022/04/21 09:25:05;;;;;;;7.55;4.50;;;;;;;15.33;46.92;101170.06;5306041;28;20019;-79
2022/04/21 09:27:42;;;;;;;5.38;4.18;;;;;;;15.38;45.91;101172.75;5305734;28;20089;-81
2022/04/21 09:30:13;;;;;;;4.45;4.05;;;;;;;15.43;49.36;101158.66;5307046;28;20024;-79
2022/04/21 09:32:59;;;;;;;8.30;7.30;;;;;;;15.44;42.11;101160.31;5306881;28;20024;-80
2022/04/21 09:35:33;;;;;;;25.60;22.77;;;;;;;15.37;42.74;101155.16;5306499;28;20058;-80
2022/04/21 09:38:04;;;;;;;5.97;5.28;;;;;;;15.45;44.04;101159.19;5302047;28;20028;-83
2022/04/21 09:40:36;;;;;;;4.80;3.28;;;;;;;15.47;42.85;101156.06;5285660;28;20044;-84
2022/04/21 09:43:08;;;;;;;5.20;3.70;;;;;;;15.53;44.05;101158.44;5286548;28;20025;-84
2022/04/21 09:48:30;;;;;;;17.48;5.38;;;;;;;15.56;44.43;101149.41;5299435;28;20032;-81
2022/04/21 09:51:11;;;;;;;6.68;4.55;;;;;;;15.63;44.53;101166.56;5306924;28;20062;-80
2022/04/21 09:54:02;;;;;;;8.85;4.82;;;;;;;15.70;45.37;101155.00;5306258;28;20040;-81
2022/04/21 09:56:41;;;;;;;6.53;3.90;;;;;;;15.68;42.68;101162.00;5305514;28;20024;-81
2022/04/21 09:59:13;;;;;;;5.35;3.70;;;;;;;15.65;43.55;101155.91;5305404;28;20044;-81
2022/04/21 10:01:44;;;;;;;4.80;3.90;;;;;;;15.75;42.05;101148.44;5286253;28;20090;-80
2022/04/21 10:04:19;;;;;;;4.30;3.90;;;;;;;15.82;43.10;101149.66;5286358;28;20463;-82
2022/04/21 10:06:51;;;;;;;5.27;3.80;;;;;;;15.76;43.77;101147.28;5284659;28;20074;-77
2022/04/21 10:09:23;;;;;;;3.92;3.30;;;;;;;15.76;44.01;101150.91;5284927;28;20435;-82
2022/04/21 10:11:57;;;;;;;4.82;3.28;;;;;;;15.98;38.75;101147.28;5288501;28;20043;-81
2022/04/21 10:14:29;;;;;;;4.50;2.63;;;;;;;15.94;38.37;101135.09;5303896;28;20024;-81
2022/04/21 10:17:00;;;;;;;4.72;2.95;;;;;;;15.98;38.37;101130.50;5296660;28;20080;-82
2022/04/21 10:19:32;;;;;;;2.85;2.38;;;;;;;16.00;38.25;101131.03;5303529;28;20093;-80
2022/04/21 10:22:11;;;;;;;5.93;3.08;;;;;;;15.98;37.34;101140.88;5300732;28;20438;-86
2022/04/21 10:24:43;;;;;;;4.95;2.90;;;;;;;15.88;36.00;101136.38;5295439;28;20092;-83
2022/04/21 10:27:37;;;;;;;4.88;2.80;;;;;;;16.04;36.31;101134.81;5287750;28;20073;-84
2022/04/21 10:30:13;;;;;;;2.92;2.40;;;;;;;16.01;36.28;101127.06;5288563;28;20035;-82
2022/04/21 10:32:52;;;;;;;4.68;2.60;;;;;;;16.13;39.14;101128.44;5289005;28;20032;-84
2022/04/21 10:35:23;;;;;;;12.88;10.10;;;;;;;16.13;36.41;101120.91;5295845;28;20096;-82
2022/04/21 10:38:12;;;;;;;11.30;9.50;;;;;;;16.19;36.90;101124.38;5314472;28;20040;-82
2022/04/21 10:41:07;;;;;;;4.30;3.08;;;;;;;16.30;37.36;101128.53;5310461;28;20361;-83
2022/04/21 10:43:50;;;;;;;4.22;3.00;;;;;;;16.34;35.90;101120.34;5289861;28;20028;-83
2022/04/21 10:46:26;;;;;;;6.07;3.58;;;;;;;16.40;34.63;101102.25;5292751;28;20429;-83
2022/04/21 10:48:59;;;;;;;5.65;3.60;;;;;;;16.47;35.90;101102.63;5306879;28;20020;-83
2022/04/21 10:57:38;;;;;;;3.15;2.17;;;;;;;16.56;35.09;101103.44;5298706;28;20095;-81
2022/04/21 11:00:22;;;;;;;3.35;2.80;;;;;;;16.68;33.88;101097.25;5336487;28;20024;-82
2022/04/21 11:03:07;;;;;;;4.35;1.83;;;;;;;16.70;31.98;101104.16;5301785;28;20146;-82
2022/04/21 11:05:40;;;;;;;2.92;2.40;;;;;;;16.69;31.15;101101.69;5327932;28;20455;-83
2022/04/21 11:08:13;;;;;;;2.50;2.30;;;;;;;16.74;33.79;101093.97;5327603;28;20122;-78
2022/04/21 11:10:45;;;;;;;3.30;2.00;;;;;;;16.82;32.53;101095.19;5326285;28;20019;-82
2022/04/21 11:13:18;;;;;;;5.78;1.90;;;;;;;16.90;30.65;101094.38;5330581;28;20024;-82
2022/04/21 11:15:55;;;;;;;3.13;1.90;;;;;;;17.00;31.64;101089.59;5307833;28;20466;-82
2022/04/21 11:18:31;;;;;;;2.40;1.98;;;;;;;17.04;32.29;101088.63;5293758;28;20444;-81
2022/04/21 11:21:23;;;;;;;7.03;3.55;;;;;;;17.08;31.94;101083.19;5305348;28;20031;-83
2022/04/21 11:23:54;;;;;;;2.53;2.30;;;;;;;17.06;30.40;101077.09;5318561;28;20024;-83
2022/04/21 11:26:30;;;;;;;2.93;2.00;;;;;;;17.02;30.57;101064.88;5332133;28;20054;-86
2022/04/21 11:29:07;;;;;;;3.88;2.33;;;;;;;17.09;30.50;101068.03;5306680;28;20768;-81
2022/04/21 11:31:39;;;;;;;2.55;1.88;;;;;;;17.26;29.67;101067.22;5305776;28;20037;-80
2022/04/21 11:34:10;;;;;;;3.28;2.22;;;;;;;17.28;30.64;101062.09;5293221;28;20025;-83
2022/04/21 11:36:41;;;;;;;4.65;2.15;;;;;;;17.38;31.73;101061.75;5292355;28;20451;-87
2022/04/21 11:39:13;;;;;;;6.38;2.65;;;;;;;17.54;31.19;101056.50;5290655;28;20028;-77
2022/04/21 11:41:48;;;;;;;12.00;10.75;;;;;;;17.57;31.15;101051.03;5283679;28;20068;-78
2022/04/21 11:44:24;;;;;;;4.35;2.88;;;;;;;17.60;30.87;101055.16;5283313;28;20025;-79
2022/04/21 11:47:05;;;;;;;3.25;2.78;;;;;;;17.69;32.43;101057.91;5286597;28;20060;-79
2022/04/21 11:49:37;;;;;;;6.22;3.88;;;;;;;17.56;31.35;101054.16;5316679;28;20035;-82
2022/04/21 11:52:09;;;;;;;5.72;3.80;;;;;;;17.71;31.48;101047.19;5303733;28;20036;-83
2022/04/21 11:54:40;;;;;;;3.22;2.53;;;;;;;17.75;31.72;101056.59;5295574;28;20040;-83
2022/04/21 11:57:11;;;;;;;7.50;2.60;;;;;;;17.90;30.53;101047.69;5285987;28;20463;-82
2022/04/21 11:59:45;;;;;;;11.18;2.90;;;;;;;17.95;31.11;101055.13;5302405;28;20032;-83
2022/04/21 12:07:57;;;;;;;7.45;2.65;;;;;;;18.17;30.43;101045.59;5305187;28;20054;-82
2022/04/21 12:10:29;;;;;;;4.30;2.40;;;;;;;18.15;31.02;101043.16;5300394;28;20382;-81
2022/04/21 12:13:01;;;;;;;2.92;2.60;;;;;;;18.24;30.91;101043.94;5284326;28;20027;-81
2022/04/21 12:15:36;;;;;;;8.10;3.17;;;;;;;18.27;30.44;101038.81;5292819;28;20490;-81
2022/04/21 12:18:08;;;;;;;3.97;2.60;;;;;;;18.26;30.81;101029.56;5317885;28;20059;-80
2022/04/21 12:20:53;;;;;;;4.30;2.72;;;;;;;18.55;31.03;101020.31;5310411;28;20091;-83
2022/04/21 12:23:25;;;;;;;5.18;3.03;;;;;;;18.53;29.66;101025.44;5318048;28;20035;-85
2022/04/21 12:25:57;;;;;;;6.18;2.60;;;;;;;18.44;28.86;101019.06;5323963;28;20437;-84
2022/04/21 12:28:45;;;;;;;4.80;2.78;;;;;;;18.68;29.77;101026.84;5295720;28;20032;-83
2022/04/21 12:31:19;;;;;;;5.97;2.08;;;;;;;18.80;29.50;101021.34;5283613;28;20029;-83
2022/04/21 12:33:51;;;;;;;4.40;2.45;;;;;;;18.88;28.42;101020.44;5292425;28;20028;-80
2022/04/21 12:36:26;;;;;;;4.40;2.35;;;;;;;18.97;28.21;101011.97;5305176;28;20435;-81
2022/04/21 12:39:01;;;;;;;3.90;2.20;;;;;;;18.94;28.72;101015.44;5309395;28;20029;-82
2022/04/21 12:41:32;;;;;;;4.53;2.08;;;;;;;18.90;28.24;101018.13;5285964;28;20024;-81
2022/04/21 12:44:04;;;;;;;5.93;2.30;;;;;;;18.91;28.77;101007.72;5301409;28;20036;-81
2022/04/21 12:46:35;;;;;;;4.13;3.67;;;;;;;18.86;29.52;101011.53;5290171;28;20039;-81
2022/04/21 12:49:08;;;;;;;4.82;3.95;;;;;;;18.70;29.87;101013.28;5285758;28;20355;-79
2022/04/21 12:51:47;;;;;;;8.48;5.15;;;;;;;18.41;29.38;101002.91;5287883;28;20124;-80
2022/04/21 12:54:26;;;;;;;4.93;2.83;;;;;;;18.19;29.80;101004.00;5287053;28;20020;-79
2022/04/21 12:56:57;;;;;;;4.57;2.60;;;;;;;18.04;30.86;100996.97;5286399;28;20033;-82
2022/04/21 12:59:28;;;;;;;3.33;2.63;;;;;;;18.02;31.38;100988.03;5292424;28;20024;-78
2022/04/21 13:01:59;;;;;;;33.70;29.50;;;;;;;18.19;31.97;100987.97;5303814;28;20086;-80
2022/04/21 13:04:31;;;;;;;11.10;4.70;;;;;;;18.28;31.81;100981.47;5311063;28;20110;-81
2022/04/21 13:07:03;;;;;;;7.13;3.10;;;;;;;18.24;31.75;100987.78;5309780;28;20031;-81
2022/04/21 13:09:34;;;;;;;5.35;2.83;;;;;;;18.26;31.47;100981.84;5308472;28;20133;-81
2022/04/21 13:12:06;;;;;;;6.40;2.60;;;;;;;18.54;31.32;100979.34;5308167;28;20482;-80
2022/04/21 13:14:37;;;;;;;2.95;2.70;;;;;;;18.44;32.16;100972.16;5307206;28;20036;-81
2022/04/21 13:17:09;;;;;;;6.95;2.88;;;;;;;18.80;32.03;100967.97;5306622;28;20081;-80
2022/04/21 13:19:40;;;;;;;6.45;4.05;;;;;;;18.74;30.87;100968.47;5299996;28;20059;-80
2022/04/21 13:22:11;;;;;;;10.00;7.05;;;;;;;19.00;31.08;100973.94;5304890;28;20034;-80
2022/04/21 13:24:43;;;;;;;9.40;6.45;;;;;;;19.13;30.76;100970.00;5306165;28;20031;-81
2022/04/21 13:27:19;;;;;;;5.70;3.00;;;;;;;19.25;30.78;100960.78;5306437;28;20044;-81
2022/04/21 13:29:50;;;;;;;3.83;3.10;;;;;;;19.14;31.48;100966.00;5306206;28;20111;-81
2022/04/21 13:35:11;;;;;;;7.53;6.72;;;;;;;19.31;31.77;100965.03;5299541;28;20028;-79
2022/04/21 13:37:42;;;;;;;4.63;4.18;;;;;;;19.35;32.22;100946.28;5317567;28;20032;-79
2022/04/21 13:40:14;;;;;;;8.50;4.18;;;;;;;19.48;32.42;100955.56;5326287;28;20030;-79
2022/04/21 13:42:45;;;;;;;6.88;4.80;;;;;;;19.41;32.34;100942.09;5307071;28;20034;-78
2022/04/21 13:45:16;;;;;;;5.53;3.40;;;;;;;19.55;32.91;100948.22;5305872;28;20016;-78
2022/04/21 13:47:47;;;;;;;5.35;3.30;;;;;;;19.60;32.25;100944.38;5307443;28;20035;-78
2022/04/21 13:50:19;;;;;;;5.63;3.90;;;;;;;19.77;32.31;100946.19;5307981;28;20024;-79
2022/04/21 13:52:50;;;;;;;7.68;3.42;;;;;;;19.82;32.68;100945.97;5296091;28;20040;-79
2022/04/21 13:55:25;;;;;;;5.10;2.95;;;;;;;19.82;32.16;100943.16;5305941;28;20089;-80
2022/04/21 13:57:57;;;;;;;6.53;3.85;;;;;;;20.01;30.96;100938.94;5325499;28;20056;-81
2022/04/21 14:00:28;;;;;;;4.68;3.65;;;;;;;19.82;31.26;100933.88;5314935;28;20035;-80
2022/04/21 14:02:59;;;;;;;7.10;3.08;;;;;;;20.04;31.92;100935.41;5288195;28;20025;-81
2022/04/21 14:05:35;;;;;;;6.68;4.43;;;;;;;20.03;31.53;100919.69;5304579;28;20032;-80
2022/04/21 14:08:08;;;;;;;8.80;6.70;;;;;;;20.17;31.44;100920.16;5305500;28;20081;-79
2022/04/21 14:10:40;;;;;;;5.30;3.67;;;;;;;19.98;32.16;100921.56;5296275;28;20025;-80
2022/04/21 14:13:11;;;;;;;5.97;3.63;;;;;;;19.97;31.78;100919.94;5284627;28;20545;-80
2022/04/21 14:15:42;;;;;;;4.80;3.80;;;;;;;19.89;32.28;100912.44;5295793;28;20036;-80
2022/04/21 14:18:13;;;;;;;6.32;4.20;;;;;;;20.00;32.54;100918.41;5305898;28;20024;-77
2022/04/21 14:20:46;;;;;;;5.93;3.80;;;;;;;20.04;33.27;100918.50;5305109;28;20118;-79
2022/04/21 14:23:19;;;;;;;11.48;4.60;;;;;;;20.15;34.68;100908.44;5306674;28;20023;-81
2022/04/21 14:25:51;;;;;;;6.43;4.38;;;;;;;20.04;32.96;100901.63;5301829;28;20382;-80
2022/04/21 14:28:22;;;;;;;8.63;4.78;;;;;;;20.06;33.57;100897.28;5291022;28;20024;-80
2022/04/21 14:30:53;;;;;;;7.38;4.63;;;;;;;20.08;33.75;100892.13;5305839;28;20044;-80
2022/04/21 14:33:25;;;;;;;4.50;3.78;;;;;;;20.17;34.76;100906.06;5306563;28;20024;-83
2022/04/21 14:35:56;;;;;;;6.10;3.70;;;;;;;20.17;34.09;100898.47;5294271;28;20024;-81
2022/04/21 14:44:11;;;;;;;11.23;7.72;;;;;;;19.70;35.11;100893.31;5292546;28;20123;-79
2022/04/21 14:46:46;;;;;;;5.50;4.38;;;;;;;19.89;35.21;100895.56;5284126;28;20100;-79
2022/04/21 14:49:18;;;;;;;20.52;18.23;;;;;;;19.85;35.37;100877.72;5283948;28;20036;-80
2022/04/21 14:51:49;;;;;;;17.48;13.27;;;;;;;19.73;35.60;100881.34;5284340;28;20024;-78
2022/04/21 14:54:23;;;;;;;6.43;4.55;;;;;;;19.69;36.30;100886.03;5293926;28;20032;-77
2022/04/21 14:56:54;;;;;;;4.30;3.90;;;;;;;19.54;35.84;100884.69;5304007;28;20035;-80
2022/04/21 14:59:26;;;;;;;6.47;3.90;;;;;;;19.61;37.72;100886.94;5294795;28;20115;-80
2022/04/21 15:01:57;;;;;;;5.82;4.35;;;;;;;19.55;36.88;100880.72;5286705;28;20384;-79
2022/04/21 15:04:29;;;;;;;5.75;3.88;;;;;;;19.65;36.73;100873.00;5294254;28;20161;-79
2022/04/21 15:07:02;;;;;;;5.97;4.15;;;;;;;19.55;37.02;100863.00;5314001;28;20026;-78
2022/04/21 15:09:34;;;;;;;6.45;4.43;;;;;;;19.29;36.99;100868.97;5325663;28;20426;-79
2022/04/21 15:12:07;;;;;;;4.43;3.80;;;;;;;19.04;37.33;100868.88;5327013;28;20055;-77
2022/04/21 15:14:38;;;;;;;6.95;3.70;;;;;;;19.15;37.33;100874.06;5289516;28;20090;-77
2022/04/21 15:17:10;;;;;;;5.57;3.58;;;;;;;19.12;37.60;100875.59;5285137;28;21446;-74
2022/04/21 15:19:44;;;;;;;7.28;4.43;;;;;;;19.09;37.70;100865.84;5286235;28;20016;-75
2022/04/21 15:22:17;;;;;;;5.75;4.13;;;;;;;19.00;37.68;100867.13;5284949;28;20471;-79
2022/04/21 15:24:52;;;;;;;6.07;3.60;;;;;;;19.00;38.29;100865.16;5285764;28;20018;-79
2022/04/21 15:27:24;;;;;;;7.13;3.90;;;;;;;19.23;37.44;100859.13;5304588;28;20077;-82
2022/04/21 15:29:56;;;;;;;8.15;3.40;;;;;;;19.34;37.67;100854.66;5305285;28;20467;-81
2022/04/21 15:32:27;;;;;;;7.53;3.90;;;;;;;19.41;37.77;100840.06;5303373;28;20035;-79
2022/04/21 15:34:59;;;;;;;6.15;3.08;;;;;;;19.46;38.13;100849.06;5303411;28;20051;-78
2022/04/21 15:37:31;;;;;;;5.40;3.70;;;;;;;19.38;38.05;100857.59;5287964;28;20032;-78
2022/04/21 15:40:04;;;;;;;4.95;3.90;;;;;;;19.14;37.79;100859.19;5299630;28;20371;-78
2022/04/21 15:42:37;;;;;;;7.72;4.10;;;;;;;19.12;37.97;100858.72;5304219;28;20032;-77
2022/04/21 15:45:09;;;;;;;8.60;3.97;;;;;;;19.09;37.98;100865.03;5303334;28;20103;-78
2022/04/21 15:47:40;;;;;;;7.38;3.65;;;;;;;19.06;38.27;100852.50;5299225;28;20419;-75
2022/04/21 15:50:11;;;;;;;7.18;3.50;;;;;;;19.19;38.42;100844.09;5289530;28;20043;-76
2022/04/21 15:52:43;;;;;;;6.97;3.55;;;;;;;19.28;38.50;100848.47;5294329;28;20031;-77
2022/04/21 16:00:43;;;;;;;5.45;4.53;;;;;;;18.96;38.70;100847.31;5282877;28;20433;-80
2022/04/21 16:03:15;;;;;;;6.40;4.70;;;;;;;19.22;38.84;100838.59;5283724;28;20017;-81
2022/04/21 16:05:46;;;;;;;14.13;11.32;;;;;;;19.11;38.74;100837.41;5283260;28;20112;-84
2022/04/21 16:08:18;;;;;;;6.55;4.30;;;;;;;19.07;38.52;100845.72;5304769;28;20526;-75
2022/04/21 16:10:49;;;;;;;5.18;4.00;;;;;;;19.11;39.21;100845.84;5292818;28;20038;-84
2022/04/21 16:13:20;;;;;;;6.22;3.92;;;;;;;18.92;38.46;100849.19;5304316;28;20028;-87
2022/04/21 16:15:51;;;;;;;8.10;4.07;;;;;;;18.72;39.44;100844.41;5304309;28;20103;-84
2022/04/21 16:18:23;;;;;;;6.00;3.90;;;;;;;18.63;39.03;100844.47;5286980;28;20044;-84
2022/04/21 16:20:54;;;;;;;4.65;3.72;;;;;;;18.67;39.90;100837.00;5286920;28;20028;-84
2022/04/21 16:23:25;;;;;;;6.28;4.28;;;;;;;18.68;39.85;100838.63;5288086;28;20082;-85
2022/04/21 16:25:59;;;;;;;6.68;4.28;;;;;;;18.64;40.02;100844.13;5296792;28;20035;-86
2022/04/21 16:28:31;;;;;;;5.65;4.45;;;;;;;18.59;40.13;100844.34;5301882;28;20107;-84
2022/04/21 16:31:04;;;;;;;8.73;4.20;;;;;;;18.33;40.60;100846.53;5309518;28;20103;-83
2022/04/21 16:33:35;;;;;;;7.53;4.65;;;;;;;18.32;40.67;100839.28;5308653;28;20069;-85
2022/04/21 16:36:06;;;;;;;9.60;4.97;;;;;;;18.20;40.69;100829.66;5308997;28;20429;-84
2022/04/21 16:38:38;;;;;;;9.32;4.80;;;;;;;18.23;40.68;100831.75;5309665;28;20089;-84
2022/04/21 16:41:09;;;;;;;5.72;4.50;;;;;;;18.37;40.95;100825.88;5307769;28;20025;-84
2022/04/21 16:43:40;;;;;;;8.40;4.63;;;;;;;18.40;41.16;100829.97;5299286;28;20074;-84
2022/04/21 16:46:12;;;;;;;4.65;4.20;;;;;;;18.36;41.03;100826.22;5304561;28;20114;-84
2022/04/21 16:48:46;;;;;;;6.95;4.47;;;;;;;18.38;41.36;100823.88;5290535;28;20149;-83
2022/04/21 16:51:18;;;;;;;6.05;4.43;;;;;;;18.37;40.85;100822.25;5320200;28;20017;-87
2022/04/21 16:53:50;;;;;;;8.25;4.40;;;;;;;18.28;40.84;100821.47;5327546;28;20031;-87
2022/04/21 16:56:22;;;;;;;7.55;3.55;;;;;;;18.32;40.83;100819.63;5330273;28;20016;-89
2022/04/21 16:58:53;;;;;;;7.13;3.50;;;;;;;18.26;41.22;100830.25;5329282;28;20072;-88
2022/04/21 17:04:18;;;;;;;6.63;3.95;;;;;;;18.22;41.73;100830.09;5313511;28;20036;-91
2022/04/21 17:06:49;;;;;;;6.25;4.07;;;;;;;18.21;42.32;100838.88;5290093;28;20040;-91
2022/04/21 17:09:21;;;;;;;6.03;3.80;;;;;;;17.98;42.21;100838.38;5289830;28;20032;-89
2022/04/21 17:11:52;;;;;;;6.45;3.55;;;;;;;17.93;42.08;100844.19;5293196;28;20040;-90
2022/04/21 17:14:24;;;;;;;5.75;4.03;;;;;;;17.66;42.93;100843.47;5293858;28;20459;-90
2022/04/21 17:17:01;;;;;;;7.55;3.83;;;;;;;17.72;42.82;100839.31;5295940;28;20027;-86
2022/04/21 17:19:36;;;;;;;10.32;3.97;;;;;;;17.75;42.82;100849.06;5312236;28;20043;-90
2022/04/21 17:22:07;;;;;;;5.40;3.88;;;;;;;17.59;42.94;100858.03;5315700;28;20024;-87
2022/04/21 17:24:38;;;;;;;8.18;3.70;;;;;;;17.55;43.46;100856.22;5321579;28;20024;-90
2022/04/21 17:27:10;;;;;;;6.13;3.65;;;;;;;17.44;44.07;100866.19;5301300;28;20024;-89
2022/04/21 17:29:44;;;;;;;5.50;3.88;;;;;;;17.45;44.20;100853.81;5299154;28;20115;-91
